Terminal Aerodrome Forecast
Issued by NWS Tampa Bay Area, FL

Home | Current Version | Previous Version | Text Only | Print | Product List | Glossary On
Versions: 1 2 3 4 5 6 7 8 9 10 11 12 13 14 15 16 17 18 19 20 21 22 23 24 25 26
298
FTUS42 KTBW 230307 AAA
TAFTPA
TAF AMD
KTPA 230307Z 2303/2324 VRB04KT P6SM FEW020 SCT250
     FM231300 19012KT P6SM SCT030 BKN250
     FM231600 21015G22KT P6SM SCT030 BKN250=

USA.gov is the U.S. government's official web portal to all federal, state and local government web resources and services.